MRSA weather

San Alberto Airport
Limón, Limon, Costa Rica

Public forecast

Using degrees Celsius for public forecast. Weather courtesy of forecast.io.

Closest aviation weather report (METAR) to San Alberto Airport

Closest report is Limon International Airport, 29.8 nm (55.2 km) ESE. Retrieved 2020/06/01 00:00 UTC (1 hour ago):

MRLM 010000Z 33002KT 9999 FEW020 SCT110 28/24 A2988

Closest aviation forecast (TAF) to San Alberto Airport

Closest forecast is Limon International Airport, 29.8 nm (55.2 km) ESE. Retrieved 2020-06-01 00:27 UTC (53 minutes ago):

TAF TAF MRLM 312324Z 0100/0124 26005KT 9999 SCT020 SCT090 TX29/0119Z TN23/0111Z BECMG 0116/0118 06005KT